Time;durP1;ratioP1;P1;durP2;ratioP2;P2;SDS_P1;SDS_P2;PMS_P1;PMS_P2;Temp;Humidity;BMP_temperature;BMP_pressure;BME280_temperature;BME280_humidity;BME280_pressure;Samples;Min_cycle;Max_cycle;Signal;HPM_P1;HPM_P2
2022/05/01 00:02:23;;;;;;;;;;;21.00;35.80;;;;;;8357127;28;19940;-46
2022/05/01 00:06:23;;;;;;;;;;;20.90;35.80;;;;;;8361521;28;20364;-46
2022/05/01 00:10:24;;;;;;;;;;;20.90;35.80;;;;;;8367260;28;20370;-46
2022/05/01 00:14:24;;;;;;;;;;;20.90;35.80;;;;;;8346273;28;20007;-46
2022/05/01 00:18:25;;;;;;;;;;;20.90;35.80;;;;;;8333520;28;19924;-46
2022/05/01 00:22:25;;;;;;;;;;;20.90;35.80;;;;;;8333787;28;20019;-47
2022/05/01 00:26:27;;;;;;;;;;;20.90;35.80;;;;;;8333965;28;19917;-46
2022/05/01 00:30:27;;;;;;;;;;;20.90;35.80;;;;;;8333234;28;19918;-45
2022/05/01 00:38:47;;;;;;;;;;;20.80;35.80;;;;;;8335085;28;19967;-51
2022/05/01 00:42:48;;;;;;;;;;;20.80;35.80;;;;;;8333345;28;19924;-48
2022/05/01 00:46:50;;;;;;;;;;;20.80;35.80;;;;;;8333166;28;20437;-47
2022/05/01 00:50:51;;;;;;;;;;;20.80;35.80;;;;;;8332009;28;19927;-46
2022/05/01 00:54:52;;;;;;;;;;;20.80;35.80;;;;;;8332967;28;20626;-47
2022/05/01 00:58:52;;;;;;;;;;;20.80;35.80;;;;;;8332743;28;19917;-47
2022/05/01 01:02:53;;;;;;;;;;;20.80;35.80;;;;;;8332460;28;19933;-48
2022/05/01 01:06:54;;;;;;;;;;;20.80;35.80;;;;;;8333183;28;20293;-46
2022/05/01 01:10:54;;;;;;;;;;;20.80;35.80;;;;;;8331951;28;20305;-46
2022/05/01 01:14:54;;;;;;;;;;;20.80;35.80;;;;;;8331907;28;19918;-45
2022/05/01 01:18:55;;;;;;;;;;;20.80;35.80;;;;;;8332142;28;19987;-46
2022/05/01 01:22:57;;;;;;;;;;;20.70;35.70;;;;;;8331764;28;20509;-47
2022/05/01 01:26:57;;;;;;;;;;;20.70;35.70;;;;;;8331693;28;19913;-46
2022/05/01 01:35:22;;;;;;;;;;;20.70;35.70;;;;;;8331835;28;20380;-46
2022/05/01 01:39:23;;;;;;;;;;;20.70;35.70;;;;;;8330851;28;20004;-47
2022/05/01 01:43:24;;;;;;;;;;;20.70;35.70;;;;;;8331473;28;19925;-46
2022/05/01 01:47:25;;;;;;;;;;;20.60;35.70;;;;;;8331473;28;20354;-46
2022/05/01 01:51:26;;;;;;;;;;;20.70;35.70;;;;;;8330887;28;19971;-46
2022/05/01 01:55:26;;;;;;;;;;;20.60;35.60;;;;;;8331302;28;19922;-46
2022/05/01 01:59:27;;;;;;;;;;;20.60;35.60;;;;;;8331341;28;20362;-47
2022/05/01 02:03:27;;;;;;;;;;;20.60;35.70;;;;;;8330366;28;20374;-46
2022/05/01 02:07:30;;;;;;;;;;;20.60;35.70;;;;;;8330708;28;20469;-46
2022/05/01 02:11:31;;;;;;;;;;;20.60;35.60;;;;;;8330880;28;19913;-46
2022/05/01 02:15:32;;;;;;;;;;;20.60;35.60;;;;;;8330104;28;19940;-49
2022/05/01 02:19:32;;;;;;;;;;;20.50;35.60;;;;;;8330283;28;19918;-49
2022/05/01 02:23:33;;;;;;;;;;;20.50;35.60;;;;;;8330365;28;19929;-47
2022/05/01 02:27:34;;;;;;;;;;;20.50;35.60;;;;;;8329747;28;19920;-48
2022/05/01 02:31:34;;;;;;;;;;;20.50;35.60;;;;;;8330561;28;19960;-46
2022/05/01 02:35:35;;;;;;;;;;;20.50;35.60;;;;;;8329820;28;19996;-46
2022/05/01 02:39:35;;;;;;;;;;;20.50;35.60;;;;;;8330028;28;19917;-46
2022/05/01 02:43:36;;;;;;;;;;;20.50;35.60;;;;;;8330228;28;19925;-46
2022/05/01 02:47:37;;;;;;;;;;;20.40;35.60;;;;;;8329654;28;19913;-46
2022/05/01 02:51:37;;;;;;;;;;;20.40;35.50;;;;;;8330565;28;19913;-48
2022/05/01 02:55:37;;;;;;;;;;;20.40;35.50;;;;;;8329897;28;19917;-46
2022/05/01 02:59:38;;;;;;;;;;;20.40;35.50;;;;;;8329496;28;19917;-47
2022/05/01 03:03:38;;;;;;;;;;;20.40;35.50;;;;;;8329916;28;20421;-47
2022/05/01 03:07:39;;;;;;;;;;;20.40;35.50;;;;;;8329940;28;19917;-47
2022/05/01 03:11:39;;;;;;;;;;;20.40;35.50;;;;;;8329234;28;19975;-46
2022/05/01 03:15:40;;;;;;;;;;;20.40;35.50;;;;;;8336079;28;19939;-46
2022/05/01 03:24:00;;;;;;;;;;;20.40;35.50;;;;;;8336688;28;20368;-47
2022/05/01 03:28:00;;;;;;;;;;;20.40;35.50;;;;;;8335544;28;19952;-46
2022/05/01 03:32:01;;;;;;;;;;;20.30;35.50;;;;;;8335693;28;19913;-46
2022/05/01 03:36:06;;;;;;;;;;;20.40;35.50;;;;;;8334866;28;19924;-47
2022/05/01 03:40:07;;;;;;;;;;;20.30;35.50;;;;;;8335284;28;19917;-48
2022/05/01 03:44:08;;;;;;;;;;;20.30;35.50;;;;;;8335090;28;20024;-49
2022/05/01 03:48:09;;;;;;;;;;;20.30;35.50;;;;;;8334763;28;19913;-46
2022/05/01 03:52:09;;;;;;;;;;;20.30;35.50;;;;;;8335367;28;19999;-47
2022/05/01 03:56:10;;;;;;;;;;;20.30;35.50;;;;;;8334891;28;19964;-46
2022/05/01 04:00:17;;;;;;;;;;;20.30;35.40;;;;;;8334312;28;19967;-45
2022/05/01 04:04:19;;;;;;;;;;;20.30;35.40;;;;;;8334417;28;19932;-48
2022/05/01 04:08:20;;;;;;;;;;;20.30;35.40;;;;;;8334371;28;20313;-48
2022/05/01 04:12:22;;;;;;;;;;;20.30;35.40;;;;;;8333989;28;19920;-46
2022/05/01 04:16:22;;;;;;;;;;;20.30;35.40;;;;;;8334301;28;20382;-46
2022/05/01 04:20:23;;;;;;;;;;;20.40;35.40;;;;;;8334071;28;19937;-47
2022/05/01 04:24:24;;;;;;;;;;;20.40;35.30;;;;;;8332235;28;19948;-47
2022/05/01 04:28:25;;;;;;;;;;;20.40;35.30;;;;;;8333674;28;19924;-46
2022/05/01 04:32:25;;;;;;;;;;;20.50;35.30;;;;;;8333760;28;19913;-50
2022/05/01 04:36:25;;;;;;;;;;;20.60;35.30;;;;;;8332925;28;19917;-46
2022/05/01 04:40:30;;;;;;;;;;;20.60;35.30;;;;;;8333408;28;19917;-45
2022/05/01 04:44:31;;;;;;;;;;;20.60;35.20;;;;;;8332966;28;19932;-46
2022/05/01 04:48:31;;;;;;;;;;;20.70;35.30;;;;;;8332524;28;19917;-49
2022/05/01 04:52:34;;;;;;;;;;;20.60;35.20;;;;;;8333090;28;19913;-47
2022/05/01 05:00:54;;;;;;;;;;;20.60;35.10;;;;;;8333080;28;19971;-46
2022/05/01 05:04:54;;;;;;;;;;;20.60;35.10;;;;;;8333120;28;19926;-47
2022/05/01 05:13:14;;;;;;;;;;;20.60;35.10;;;;;;8336753;28;20293;-50
2022/05/01 05:17:18;;;;;;;;;;;20.60;35.10;;;;;;8332374;28;19917;-48
2022/05/01 05:21:18;;;;;;;;;;;20.60;35.10;;;;;;8331584;28;20016;-48
2022/05/01 05:25:20;;;;;;;;;;;20.60;35.10;;;;;;8331762;28;20468;-47
2022/05/01 05:29:21;;;;;;;;;;;20.60;35.20;;;;;;8331697;28;20362;-47
2022/05/01 05:33:22;;;;;;;;;;;20.60;35.10;;;;;;8331345;28;20039;-46
2022/05/01 05:37:22;;;;;;;;;;;20.60;35.10;;;;;;8331376;28;19924;-47
2022/05/01 05:41:23;;;;;;;;;;;20.60;35.10;;;;;;8331366;28;20354;-52
2022/05/01 05:45:24;;;;;;;;;;;20.60;35.10;;;;;;8330880;28;19931;-47
2022/05/01 05:49:25;;;;;;;;;;;20.60;35.10;;;;;;8331404;28;19928;-45
2022/05/01 05:53:25;;;;;;;;;;;20.60;35.10;;;;;;8331400;28;19935;-45
2022/05/01 05:57:26;;;;;;;;;;;20.50;35.10;;;;;;8330390;28;19924;-45
2022/05/01 06:01:26;;;;;;;;;;;20.60;35.10;;;;;;8330899;28;19927;-45
2022/05/01 06:05:27;;;;;;;;;;;20.50;35.10;;;;;;8330878;28;19925;-47
2022/05/01 06:09:27;;;;;;;;;;;20.50;35.10;;;;;;8330206;28;20331;-47
2022/05/01 06:13:28;;;;;;;;;;;20.50;35.10;;;;;;8331148;28;19956;-48
2022/05/01 06:17:28;;;;;;;;;;;20.50;35.10;;;;;;8330515;28;19918;-46
2022/05/01 06:21:28;;;;;;;;;;;20.50;35.10;;;;;;8329915;28;19918;-45
2022/05/01 06:25:29;;;;;;;;;;;20.50;35.10;;;;;;8330286;28;19929;-46
2022/05/01 06:29:30;;;;;;;;;;;20.50;35.10;;;;;;8330220;28;19936;-46
2022/05/01 06:33:30;;;;;;;;;;;20.50;35.10;;;;;;8329993;28;19920;-46
2022/05/01 06:37:31;;;;;;;;;;;20.40;35.10;;;;;;8330074;28;19996;-46
2022/05/01 06:41:31;;;;;;;;;;;20.50;35.10;;;;;;8330157;28;19921;-46
2022/05/01 06:45:32;;;;;;;;;;;20.50;35.10;;;;;;8329546;28;19925;-46
2022/05/01 06:49:32;;;;;;;;;;;20.50;35.10;;;;;;8334737;28;20432;-47
2022/05/01 06:53:33;;;;;;;;;;;20.50;35.10;;;;;;8336954;28;19918;-48
2022/05/01 06:57:33;;;;;;;;;;;20.40;35.00;;;;;;8336029;28;20020;-49
2022/05/01 07:01:34;;;;;;;;;;;20.50;35.10;;;;;;8336552;28;19925;-47
2022/05/01 07:05:34;;;;;;;;;;;20.50;35.10;;;;;;8335931;28;19963;-46
2022/05/01 07:09:35;;;;;;;;;;;20.40;35.10;;;;;;8336102;28;20016;-48
2022/05/01 07:13:36;;;;;;;;;;;20.50;35.10;;;;;;8336400;28;19915;-46
2022/05/01 07:17:36;;;;;;;;;;;20.40;35.10;;;;;;8335300;28;19917;-46
2022/05/01 07:21:36;;;;;;;;;;;20.40;35.10;;;;;;8335798;28;20293;-46
2022/05/01 07:25:37;;;;;;;;;;;20.50;35.20;;;;;;8335637;28;19932;-46
2022/05/01 07:29:37;;;;;;;;;;;20.50;35.20;;;;;;8335076;28;20369;-45
2022/05/01 07:33:38;;;;;;;;;;;20.50;35.20;;;;;;8335641;28;20462;-45
2022/05/01 07:37:38;;;;;;;;;;;20.40;35.20;;;;;;8335308;28;19918;-46
2022/05/01 07:41:40;;;;;;;;;;;20.40;35.20;;;;;;8334574;28;19948;-46
2022/05/01 07:45:40;;;;;;;;;;;20.40;35.20;;;;;;8335292;28;20374;-46
2022/05/01 07:49:41;;;;;;;;;;;20.40;35.20;;;;;;8335091;28;20008;-46
2022/05/01 07:53:41;;;;;;;;;;;20.40;35.20;;;;;;8334485;28;19958;-47
2022/05/01 07:57:42;;;;;;;;;;;20.40;35.20;;;;;;8334893;28;19921;-46
2022/05/01 08:01:42;;;;;;;;;;;20.40;35.20;;;;;;8334600;28;19924;-46
2022/05/01 08:05:43;;;;;;;;;;;20.40;35.20;;;;;;8334372;28;20326;-47
2022/05/01 08:09:43;;;;;;;;;;;20.40;35.30;;;;;;8334691;28;20274;-46
2022/05/01 08:13:43;;;;;;;;;;;20.40;35.30;;;;;;8334341;28;19920;-46
2022/05/01 08:17:47;;;;;;;;;;;20.40;35.30;;;;;;8333575;28;19923;-47
2022/05/01 08:21:47;;;;;;;;;;;20.50;35.30;;;;;;8333644;28;19953;-47
2022/05/01 08:25:48;;;;;;;;;;;20.50;35.20;;;;;;8333739;28;19925;-48
2022/05/01 08:29:49;;;;;;;;;;;20.60;35.30;;;;;;8333332;28;19913;-46
2022/05/01 08:33:49;;;;;;;;;;;20.60;35.20;;;;;;8333552;28;19921;-48
2022/05/01 08:37:50;;;;;;;;;;;20.70;35.20;;;;;;8333423;28;20327;-49
2022/05/01 08:41:50;;;;;;;;;;;20.70;35.30;;;;;;8332859;28;19917;-46
2022/05/01 08:46:09;;;;;;;;;;;20.70;35.30;;;;;;8333621;28;19980;-47
2022/05/01 08:50:10;;;;;;;;;;;20.70;35.30;;;;;;8333232;28;19995;-49
2022/05/01 08:54:11;;;;;;;;;;;20.70;35.30;;;;;;8332681;28;19913;-46
2022/05/01 08:58:13;;;;;;;;;;;20.70;35.30;;;;;;8332991;28;19924;-46
2022/05/01 09:02:15;;;;;;;;;;;20.70;35.30;;;;;;8332745;28;19933;-46
2022/05/01 09:06:16;;;;;;;;;;;20.70;35.30;;;;;;8332437;28;19921;-45
2022/05/01 09:10:18;;;;;;;;;;;20.70;35.30;;;;;;8332251;28;19913;-46
2022/05/01 09:14:20;;;;;;;;;;;20.70;35.30;;;;;;8332568;28;19956;-47
2022/05/01 09:18:21;;;;;;;;;;;20.70;35.30;;;;;;8331669;28;19921;-46
2022/05/01 09:22:22;;;;;;;;;;;20.70;35.30;;;;;;8346688;28;19921;-46
2022/05/01 09:26:22;;;;;;;;;;;20.70;35.40;;;;;;8378714;28;19919;-47
2022/05/01 09:30:34;;;;;;;;;;;20.70;35.40;;;;;;8331378;28;19918;-45
2022/05/01 09:34:36;;;;;;;;;;;20.70;35.40;;;;;;8332343;28;19963;-45
2022/05/01 09:38:36;;;;;;;;;;;20.70;35.40;;;;;;8331073;28;19917;-46
2022/05/01 09:42:36;;;;;;;;;;;20.70;35.30;;;;;;8331352;28;19924;-46
2022/05/01 09:46:38;;;;;;;;;;;20.70;35.40;;;;;;8331540;28;20370;-46
2022/05/01 09:50:40;;;;;;;;;;;20.70;35.40;;;;;;8330937;28;19924;-47
2022/05/01 09:54:41;;;;;;;;;;;20.70;35.30;;;;;;8331245;28;19913;-46
2022/05/01 09:58:43;;;;;;;;;;;20.70;35.30;;;;;;8331153;28;19970;-46
2022/05/01 10:02:44;;;;;;;;;;;20.80;35.40;;;;;;8330640;28;19921;-45
2022/05/01 10:06:44;;;;;;;;;;;20.70;35.30;;;;;;8331000;28;19980;-46
2022/05/01 10:10:46;;;;;;;;;;;20.70;35.30;;;;;;8330499;28;20278;-46
2022/05/01 10:14:48;;;;;;;;;;;20.80;35.30;;;;;;8330603;28;19917;-46
2022/05/01 10:18:49;;;;;;;;;;;20.80;35.40;;;;;;8330878;28;20283;-47
2022/05/01 10:22:49;;;;;;;;;;;20.80;35.30;;;;;;8329747;28;19929;-46
2022/05/01 10:26:52;;;;;;;;;;;20.80;35.30;;;;;;8329953;28;19944;-47
2022/05/01 10:35:25;;;;;;;;;;;20.90;35.30;;;;;;8334231;28;20357;-49
2022/05/01 10:39:29;;;;;;;;;;;20.90;35.30;;;;;;8329747;28;19921;-47
2022/05/01 10:43:36;;;;;;;;;;;20.90;35.20;;;;;;8330058;28;19991;-51
2022/05/01 10:47:37;;;;;;;;;;;20.90;35.20;;;;;;8329722;28;20385;-48
2022/05/01 10:51:41;;;;;;;;;;;20.90;35.20;;;;;;8330044;28;19928;-46
2022/05/01 10:55:52;;;;;;;;;;;21.00;35.20;;;;;;8330326;28;19917;-45
2022/05/01 11:00:05;;;;;;;;;;;21.00;35.20;;;;;;8329593;28;19967;-46
2022/05/01 11:04:06;;;;;;;;;;;21.00;35.10;;;;;;8356563;28;20267;-48
2022/05/01 11:08:13;;;;;;;;;;;21.00;35.10;;;;;;8362678;28;19917;-46
2022/05/01 11:12:15;;;;;;;;;;;21.10;35.20;;;;;;8362197;28;19917;-47
2022/05/01 11:16:16;;;;;;;;;;;21.10;35.20;;;;;;8362391;28;19923;-45
2022/05/01 11:20:19;;;;;;;;;;;21.10;35.10;;;;;;8362796;28;19924;-47
2022/05/01 11:24:39;;;;;;;;;;;21.10;35.10;;;;;;8361868;28;19929;-48
2022/05/01 11:28:56;;;;;;;;;;;21.10;35.10;;;;;;8362390;28;20413;-44
2022/05/01 11:33:00;;;;;;;;;;;21.10;35.10;;;;;;8362116;28;19917;-46
2022/05/01 11:37:05;;;;;;;;;;;21.10;35.10;;;;;;8368535;28;19927;-47
2022/05/01 11:41:06;;;;;;;;;;;21.10;35.10;;;;;;8368688;28;19963;-45
2022/05/01 11:45:08;;;;;;;;;;;21.20;35.10;;;;;;8367719;28;19929;-47
2022/05/01 11:49:09;;;;;;;;;;;21.20;35.10;;;;;;8368488;28;20281;-47
2022/05/01 11:53:36;;;;;;;;;;;21.20;35.10;;;;;;8368363;28;19920;-45
2022/05/01 12:06:24;;;;;;;;;;;21.20;35.00;;;;;;8368944;28;20055;-46
2022/05/01 12:10:26;;;;;;;;;;;21.30;35.00;;;;;;8367760;28;20291;-46
2022/05/01 12:14:26;;;;;;;;;;;21.30;35.00;;;;;;8367368;28;20374;-47
2022/05/01 12:18:27;;;;;;;;;;;21.30;34.90;;;;;;8366668;28;19956;-46
2022/05/01 12:22:30;;;;;;;;;;;21.40;34.90;;;;;;8366981;28;19925;-46
2022/05/01 12:26:33;;;;;;;;;;;21.40;34.90;;;;;;8366998;28;19917;-46
2022/05/01 12:30:34;;;;;;;;;;;21.40;34.80;;;;;;8366772;28;19932;-46
2022/05/01 12:34:44;;;;;;;;;;;21.40;34.80;;;;;;8366879;28;19986;-48
2022/05/01 12:38:44;;;;;;;;;;;21.50;34.80;;;;;;8366102;28;19917;-48
2022/05/01 12:47:05;;;;;;;;;;;21.50;34.80;;;;;;8369729;28;20410;-46
2022/05/01 12:51:05;;;;;;;;;;;21.50;34.80;;;;;;8366112;28;19956;-47
2022/05/01 12:55:14;;;;;;;;;;;21.50;34.80;;;;;;8366104;28;19924;-45
2022/05/01 12:59:28;;;;;;;;;;;21.50;34.70;;;;;;8365949;28;19931;-45
2022/05/01 13:03:33;;;;;;;;;;;21.50;34.70;;;;;;8365992;28;19932;-46
2022/05/01 13:07:34;;;;;;;;;;;21.50;34.80;;;;;;8365534;28;19917;-47
2022/05/01 13:11:36;;;;;;;;;;;21.50;34.70;;;;;;8334471;28;19913;-45
2022/05/01 13:15:40;;;;;;;;;;;21.60;34.80;;;;;;8332729;28;19918;-46
2022/05/01 13:19:41;;;;;;;;;;;21.50;34.70;;;;;;8332242;28;19921;-46
2022/05/01 13:23:42;;;;;;;;;;;21.60;34.80;;;;;;8331604;28;19925;-45
2022/05/01 13:27:42;;;;;;;;;;;21.60;34.70;;;;;;8332026;28;19924;-46
2022/05/01 13:31:44;;;;;;;;;;;21.50;34.70;;;;;;8332390;28;20007;-47
2022/05/01 13:35:44;;;;;;;;;;;21.60;34.70;;;;;;8331374;28;19924;-46
2022/05/01 13:48:43;;;;;;;;;;;21.60;34.70;;;;;;8299324;28;19940;-46
2022/05/01 13:52:44;;;;;;;;;;;21.60;34.70;;;;;;8331370;28;19949;-46
2022/05/01 13:56:44;;;;;;;;;;;21.60;34.70;;;;;;8330845;28;19920;-48
2022/05/01 14:00:45;;;;;;;;;;;21.60;34.70;;;;;;8331544;28;19979;-50
2022/05/01 14:04:46;;;;;;;;;;;21.60;34.60;;;;;;8330802;28;19932;-45
2022/05/01 14:08:48;;;;;;;;;;;21.60;34.60;;;;;;8330528;28;19953;-46
2022/05/01 14:12:48;;;;;;;;;;;21.60;34.60;;;;;;8330806;28;19917;-49
2022/05/01 14:16:49;;;;;;;;;;;21.70;34.60;;;;;;8331114;28;19913;-48
2022/05/01 14:20:51;;;;;;;;;;;21.70;34.60;;;;;;8330222;28;19971;-47
2022/05/01 14:24:51;;;;;;;;;;;21.70;34.60;;;;;;8312814;28;20059;-46
2022/05/01 14:28:52;;;;;;;;;;;21.70;34.60;;;;;;8330739;28;19921;-46
2022/05/01 14:32:53;;;;;;;;;;;21.70;34.60;;;;;;8330059;28;19928;-45
2022/05/01 14:36:56;;;;;;;;;;;21.70;34.60;;;;;;8330633;28;19920;-46
2022/05/01 14:40:59;;;;;;;;;;;21.70;34.60;;;;;;8330219;28;20055;-45
2022/05/01 14:45:04;;;;;;;;;;;21.80;34.60;;;;;;8329772;28;20370;-47
2022/05/01 14:49:04;;;;;;;;;;;21.70;34.50;;;;;;8330180;28;20294;-46
2022/05/01 14:53:08;;;;;;;;;;;21.70;34.50;;;;;;8330222;28;19948;-48
2022/05/01 14:57:12;;;;;;;;;;;21.70;34.50;;;;;;8329688;28;19917;-47
2022/05/01 15:09:56;;;;;;;;;;;21.70;34.50;;;;;;8333162;28;19925;-47
2022/05/01 15:13:57;;;;;;;;;;;21.70;34.50;;;;;;8336454;28;20275;-47
2022/05/01 15:17:59;;;;;;;;;;;21.70;34.50;;;;;;8335730;28;19917;-47
2022/05/01 15:22:38;;;;;;;;;;;21.70;34.60;;;;;;8336238;28;19913;-46
2022/05/01 15:26:38;;;;;;;;;;;21.70;34.60;;;;;;8202745;29;20506;-47
2022/05/01 15:30:40;;;;;;;;;;;21.70;34.60;;;;;;8273937;28;19917;-47
2022/05/01 15:34:42;;;;;;;;;;;21.70;34.60;;;;;;8335590;28;20277;-46
2022/05/01 15:38:52;;;;;;;;;;;21.70;34.60;;;;;;8335072;28;20008;-47
2022/05/01 15:42:53;;;;;;;;;;;21.70;34.60;;;;;;8335194;28;20020;-48
2022/05/01 15:46:58;;;;;;;;;;;21.70;34.50;;;;;;8335670;28;19913;-47
2022/05/01 15:55:18;;;;;;;;;;;21.70;34.60;;;;;;8338771;28;19986;-47
2022/05/01 15:59:20;;;;;;;;;;;21.70;34.60;;;;;;8334740;28;19917;-46
2022/05/01 16:03:21;;;;;;;;;;;21.70;34.60;;;;;;8334073;28;20333;-45
2022/05/01 16:07:32;;;;;;;;;;;21.70;34.60;;;;;;8334531;28;19914;-46
2022/05/01 16:11:56;;;;;;;;;;;21.70;34.70;;;;;;8334480;28;19921;-47
2022/05/01 16:15:57;;;;;;;;;;;21.70;34.70;;;;;;8333818;28;19983;-46
2022/05/01 16:20:05;;;;;;;;;;;21.70;34.70;;;;;;8334419;28;19917;-47
2022/05/01 16:24:10;;;;;;;;;;;21.70;34.70;;;;;;8333638;28;19960;-47
2022/05/01 16:28:17;;;;;;;;;;;21.60;34.70;;;;;;8334049;28;19917;-49
2022/05/01 16:32:20;;;;;;;;;;;21.60;34.70;;;;;;8334205;28;19952;-48
2022/05/01 16:36:23;;;;;;;;;;;21.70;34.80;;;;;;8333227;28;20325;-47
2022/05/01 16:40:23;;;;;;;;;;;21.60;34.80;;;;;;8333604;28;20586;-50
2022/05/01 16:44:25;;;;;;;;;;;21.60;34.80;;;;;;8333333;28;19957;-47
2022/05/01 16:48:26;;;;;;;;;;;21.60;34.80;;;;;;8332871;28;19924;-48
2022/05/01 16:52:30;;;;;;;;;;;21.60;34.80;;;;;;8333328;28;19917;-46
2022/05/01 16:56:33;;;;;;;;;;;21.60;34.90;;;;;;8333086;28;19928;-45
2022/05/01 17:00:35;;;;;;;;;;;21.60;34.80;;;;;;8332463;28;19924;-46
2022/05/01 17:04:36;;;;;;;;;;;21.60;34.80;;;;;;8333260;28;20277;-46
2022/05/01 17:08:49;;;;;;;;;;;21.60;34.90;;;;;;8314304;28;19913;-47
2022/05/01 17:13:00;;;;;;;;;;;21.50;34.80;;;;;;8332170;28;21513;-46
2022/05/01 17:17:09;;;;;;;;;;;21.50;34.90;;;;;;8332445;28;19918;-45
2022/05/01 17:21:12;;;;;;;;;;;21.50;34.90;;;;;;8331786;28;19917;-47
2022/05/01 17:25:15;;;;;;;;;;;21.50;34.80;;;;;;8332115;28;19932;-48
2022/05/01 17:29:19;;;;;;;;;;;21.50;34.80;;;;;;8331926;28;19917;-46
2022/05/01 17:33:30;;;;;;;;;;;21.50;34.90;;;;;;8331178;28;19967;-45
2022/05/01 17:37:31;;;;;;;;;;;21.50;34.90;;;;;;8332428;28;20012;-45
2022/05/01 17:41:34;;;;;;;;;;;21.50;34.90;;;;;;8350756;28;19923;-46
2022/05/01 17:45:35;;;;;;;;;;;21.50;34.90;;;;;;8364017;28;19925;-46
2022/05/01 17:49:36;;;;;;;;;;;21.50;34.80;;;;;;8364545;28;20362;-46
2022/05/01 17:53:38;;;;;;;;;;;21.50;34.90;;;;;;8363836;28;19913;-46
2022/05/01 17:57:39;;;;;;;;;;;21.50;34.90;;;;;;8364574;28;19913;-46
2022/05/01 18:01:58;;;;;;;;;;;21.50;34.90;;;;;;8364131;28;19917;-48
2022/05/01 18:10:24;;;;;;;;;;;21.50;35.00;;;;;;8364426;28;20281;-47
2022/05/01 18:14:28;;;;;;;;;;;21.50;35.00;;;;;;8363734;28;20323;-46
2022/05/01 18:18:31;;;;;;;;;;;21.50;35.00;;;;;;8363380;28;19917;-47
2022/05/01 18:22:53;;;;;;;;;;;21.50;35.00;;;;;;8363962;28;19966;-48
2022/05/01 18:26:59;;;;;;;;;;;21.50;35.00;;;;;;8349068;28;19927;-47
2022/05/01 18:31:03;;;;;;;;;;;21.40;34.90;;;;;;8363618;28;19920;-46
2022/05/01 18:35:04;;;;;;;;;;;21.40;34.90;;;;;;8363583;28;20369;-47
2022/05/01 18:39:05;;;;;;;;;;;21.40;34.90;;;;;;8362544;28;19913;-45
2022/05/01 18:43:06;;;;;;;;;;;21.40;35.00;;;;;;8362670;28;19921;-46
2022/05/01 18:47:07;;;;;;;;;;;21.40;35.00;;;;;;8362676;28;19917;-46
2022/05/01 18:51:08;;;;;;;;;;;21.40;35.00;;;;;;8362443;28;19925;-46
2022/05/01 18:55:09;;;;;;;;;;;21.40;35.00;;;;;;8363267;28;20002;-46
2022/05/01 18:59:10;;;;;;;;;;;21.40;35.00;;;;;;8363002;28;19913;-46
2022/05/01 19:03:11;;;;;;;;;;;21.40;35.00;;;;;;8362634;28;19931;-47
2022/05/01 19:07:32;;;;;;;;;;;21.40;35.10;;;;;;8351497;28;19917;-46
2022/05/01 19:11:32;;;;;;;;;;;21.40;35.10;;;;;;8329397;28;19917;-48
2022/05/01 19:15:40;;;;;;;;;;;21.40;35.10;;;;;;8329261;28;19924;-45
2022/05/01 19:19:49;;;;;;;;;;;21.40;35.10;;;;;;8329869;28;20354;-46
2022/05/01 19:28:33;;;;;;;;;;;21.30;35.10;;;;;;8333237;28;19924;-45
2022/05/01 19:32:39;;;;;;;;;;;21.30;35.10;;;;;;8356750;28;19917;-45
2022/05/01 19:36:40;;;;;;;;;;;21.30;35.60;;;;;;8362089;28;20421;-46
2022/05/01 19:40:44;;;;;;;;;;;21.30;35.20;;;;;;8362232;28;19924;-47
2022/05/01 19:45:03;;;;;;;;;;;21.30;35.10;;;;;;8361702;28;20344;-47
2022/05/01 19:53:47;;;;;;;;;;;21.30;35.20;;;;;;8364626;28;19928;-45
2022/05/01 19:57:48;;;;;;;;;;;21.30;35.20;;;;;;8367953;28;19917;-46
2022/05/01 20:01:49;;;;;;;;;;;21.20;35.10;;;;;;8367837;28;19923;-47
2022/05/01 20:05:51;;;;;;;;;;;21.30;35.20;;;;;;8367716;28;20234;-44
2022/05/01 20:09:53;;;;;;;;;;;21.30;35.20;;;;;;8367841;28;19979;-44
2022/05/01 20:13:54;;;;;;;;;;;21.20;35.10;;;;;;8367711;28;20443;-45
2022/05/01 20:18:01;;;;;;;;;;;21.20;35.10;;;;;;8366956;28;19925;-45
2022/05/01 20:22:06;;;;;;;;;;;21.20;35.10;;;;;;8367455;28;20267;-45
2022/05/01 20:26:10;;;;;;;;;;;21.20;35.10;;;;;;8367070;28;19925;-46
2022/05/01 20:30:11;;;;;;;;;;;21.20;35.20;;;;;;8366506;28;19917;-45
2022/05/01 20:34:14;;;;;;;;;;;21.20;35.20;;;;;;8367121;28;19921;-48
2022/05/01 20:38:24;;;;;;;;;;;21.20;35.10;;;;;;8366862;28;19916;-46
2022/05/01 20:42:42;;;;;;;;;;;21.20;35.10;;;;;;8366021;28;19917;-45
2022/05/01 20:46:47;;;;;;;;;;;21.20;35.00;;;;;;8366349;28;20373;-45
2022/05/01 20:50:54;;;;;;;;;;;21.20;35.00;;;;;;8365827;28;20401;-47
2022/05/01 20:55:01;;;;;;;;;;;21.20;35.00;;;;;;8366533;28;20369;-47
2022/05/01 20:59:02;;;;;;;;;;;21.20;35.00;;;;;;8366330;28;19917;-46
2022/05/01 21:03:03;;;;;;;;;;;21.20;34.90;;;;;;8365425;28;19978;-49
2022/05/01 21:07:04;;;;;;;;;;;21.20;34.90;;;;;;8364543;28;19917;-46
2022/05/01 21:11:05;;;;;;;;;;;21.20;34.90;;;;;;8347510;28;19978;-46
2022/05/01 21:15:06;;;;;;;;;;;21.20;34.90;;;;;;8365135;28;19913;-47
2022/05/01 21:19:07;;;;;;;;;;;21.20;34.90;;;;;;8365556;28;20340;-46
2022/05/01 21:23:08;;;;;;;;;;;21.20;34.90;;;;;;8365086;28;19932;-46
2022/05/01 21:27:08;;;;;;;;;;;21.20;34.90;;;;;;8364561;28;19920;-46
2022/05/01 21:35:28;;;;;;;;;;;21.20;34.90;;;;;;8365098;28;19924;-48
2022/05/01 21:39:28;;;;;;;;;;;21.10;34.90;;;;;;8364332;28;19913;-46
2022/05/01 21:43:29;;;;;;;;;;;21.10;34.90;;;;;;8364556;28;19924;-51
2022/05/01 21:47:29;;;;;;;;;;;21.10;34.90;;;;;;8364544;28;19917;-46
2022/05/01 21:51:30;;;;;;;;;;;21.10;35.00;;;;;;8364349;28;19999;-46
2022/05/01 21:55:32;;;;;;;;;;;21.10;34.90;;;;;;8364342;28;20337;-46
2022/05/01 21:59:32;;;;;;;;;;;21.10;35.00;;;;;;8364291;28;19913;-46
2022/05/01 22:03:33;;;;;;;;;;;21.10;35.00;;;;;;8338710;28;19975;-47
2022/05/01 22:07:33;;;;;;;;;;;21.10;35.00;;;;;;8330984;28;19921;-49
2022/05/01 22:11:35;;;;;;;;;;;21.10;35.00;;;;;;8331121;28;20316;-46
2022/05/01 22:15:35;;;;;;;;;;;21.00;35.00;;;;;;8330504;28;19913;-48
2022/05/01 22:19:37;;;;;;;;;;;21.00;35.00;;;;;;8330790;28;19913;-49
2022/05/01 22:23:38;;;;;;;;;;;21.00;35.60;;;;;;8329943;28;19925;-48
2022/05/01 22:27:38;;;;;;;;;;;21.00;35.00;;;;;;8330884;28;20320;-46
2022/05/01 22:31:39;;;;;;;;;;;21.00;35.00;;;;;;8330622;28;19944;-46
2022/05/01 22:39:58;;;;;;;;;;;21.00;35.00;;;;;;8337695;28;19971;-46
2022/05/01 22:43:59;;;;;;;;;;;20.90;35.00;;;;;;8330068;28;19925;-46
2022/05/01 22:47:59;;;;;;;;;;;20.90;35.10;;;;;;8329700;28;19921;-46
2022/05/01 22:52:00;;;;;;;;;;;20.90;35.00;;;;;;8330095;28;19917;-46
2022/05/01 22:56:00;;;;;;;;;;;20.90;35.10;;;;;;8330082;28;19913;-47
2022/05/01 23:00:01;;;;;;;;;;;20.90;35.10;;;;;;8312161;28;19917;-48
2022/05/01 23:04:01;;;;;;;;;;;20.90;35.00;;;;;;8330092;28;20369;-50
2022/05/01 23:08:02;;;;;;;;;;;20.90;35.10;;;;;;8329904;28;19917;-47
2022/05/01 23:12:03;;;;;;;;;;;20.90;35.10;;;;;;8329342;28;19917;-47
2022/05/01 23:16:04;;;;;;;;;;;20.80;35.10;;;;;;8329696;28;19913;-47
2022/05/01 23:20:05;;;;;;;;;;;20.80;35.10;;;;;;8330040;28;19975;-47
2022/05/01 23:24:06;;;;;;;;;;;20.80;35.10;;;;;;8329057;28;19925;-48
2022/05/01 23:28:06;;;;;;;;;;;20.80;35.10;;;;;;8329847;28;19921;-45
2022/05/01 23:32:07;;;;;;;;;;;20.80;35.10;;;;;;8334657;28;19924;-46
2022/05/01 23:36:11;;;;;;;;;;;20.80;35.10;;;;;;8335177;28;20396;-46
2022/05/01 23:40:12;;;;;;;;;;;20.80;35.10;;;;;;8336045;28;20505;-45
2022/05/01 23:44:13;;;;;;;;;;;20.70;35.10;;;;;;8335506;28;19932;-46
2022/05/01 23:48:13;;;;;;;;;;;20.80;35.20;;;;;;8334849;28;19917;-46
2022/05/01 23:52:14;;;;;;;;;;;20.80;35.20;;;;;;8335206;28;19926;-47
2022/05/01 23:56:14;;;;;;;;;;;20.70;35.10;;;;;;8348651;28;19916;-46
